createdAt,value
2022-12-11T00:02:08.120Z,28.67
2022-12-11T00:04:34.897Z,28.83
2022-12-11T00:07:01.566Z,28.02
2022-12-11T00:09:28.163Z,29.73
2022-12-11T00:11:54.831Z,29.35
2022-12-11T00:14:21.581Z,28.58
2022-12-11T00:16:49.514Z,27.70
2022-12-11T00:19:16.720Z,28.52
2022-12-11T00:21:43.375Z,29.83
2022-12-11T00:24:10.147Z,27.95
2022-12-11T00:26:37.092Z,31.05
2022-12-11T00:29:08.079Z,30.73
2022-12-11T00:31:34.903Z,28.65
2022-12-11T00:34:02.669Z,28.40
2022-12-11T00:36:29.279Z,32.22
2022-12-11T00:38:55.943Z,29.23
2022-12-11T00:41:22.856Z,30.55
2022-12-11T00:43:50.096Z,28.83
2022-12-11T00:46:17.001Z,27.77
2022-12-11T00:48:43.725Z,28.00
2022-12-11T00:51:10.832Z,28.70
2022-12-11T00:53:38.713Z,29.33
2022-12-11T00:56:17.695Z,29.08
2022-12-11T00:58:45.488Z,30.83
2022-12-11T01:01:22.150Z,29.60
2022-12-11T01:03:49.638Z,30.40
2022-12-11T01:06:22.766Z,31.00
2022-12-11T01:09:09.551Z,29.88
2022-12-11T01:11:36.571Z,29.13
2022-12-11T01:14:03.814Z,27.95
2022-12-11T01:16:30.449Z,26.90
2022-12-11T01:18:57.642Z,28.60
2022-12-11T01:21:24.550Z,26.02
2022-12-11T01:23:51.482Z,26.70
2022-12-11T01:26:18.763Z,26.88
2022-12-11T01:28:45.700Z,27.88
2022-12-11T01:31:14.877Z,26.63
2022-12-11T01:33:41.706Z,25.70
2022-12-11T01:36:18.006Z,26.98
2022-12-11T01:38:46.493Z,25.52
2022-12-11T01:41:13.636Z,25.95
2022-12-11T01:44:01.772Z,26.92
2022-12-11T01:46:30.096Z,28.30
2022-12-11T01:48:58.272Z,26.77
2022-12-11T01:51:25.935Z,26.27
2022-12-11T01:54:00.508Z,25.90
2022-12-11T01:56:30.547Z,27.23
2022-12-11T01:59:02.711Z,24.92
2022-12-11T02:01:55.446Z,25.73
2022-12-11T02:04:23.432Z,25.67
2022-12-11T02:06:55.859Z,26.73
2022-12-11T02:09:32.702Z,25.75
2022-12-11T02:12:06.664Z,25.58
2022-12-11T02:14:44.050Z,27.17
2022-12-11T02:17:23.449Z,25.55
2022-12-11T02:20:09.819Z,25.95
2022-12-11T02:22:53.391Z,24.95
2022-12-11T02:25:30.366Z,25.95
2022-12-11T02:28:28.249Z,24.50
2022-12-11T02:31:00.246Z,24.85
2022-12-11T02:33:38.893Z,24.63
2022-12-11T02:36:07.865Z,24.50
2022-12-11T02:38:39.275Z,24.30
2022-12-11T02:41:08.176Z,22.67
2022-12-11T02:43:36.685Z,24.58
2022-12-11T02:46:06.033Z,23.48
2022-12-11T02:48:34.770Z,24.38
2022-12-11T02:51:03.083Z,23.52
2022-12-11T02:53:32.246Z,22.75
2022-12-11T02:56:10.170Z,22.23
2022-12-11T02:58:43.006Z,22.52
2022-12-11T03:01:10.344Z,23.73
2022-12-11T03:03:37.383Z,23.08
2022-12-11T03:06:04.235Z,21.88
2022-12-11T03:08:31.883Z,22.35
2022-12-11T03:10:58.519Z,21.92
2022-12-11T03:13:25.340Z,19.98
2022-12-11T03:16:06.931Z,22.92
2022-12-11T03:18:36.810Z,21.05
2022-12-11T03:21:09.301Z,23.45
2022-12-11T03:23:46.679Z,20.67
2022-12-11T03:26:16.426Z,21.00
2022-12-11T03:28:55.705Z,22.58
2022-12-11T03:31:52.672Z,21.98
2022-12-11T03:34:35.043Z,23.20
2022-12-11T03:37:05.097Z,22.00
2022-12-11T03:39:36.769Z,19.88
2022-12-11T03:44:33.483Z,21.88
2022-12-11T03:47:03.162Z,21.77
2022-12-11T03:49:35.383Z,22.85
2022-12-11T03:52:03.945Z,22.60
2022-12-11T03:54:31.295Z,24.80
2022-12-11T03:57:00.272Z,25.52
2022-12-11T03:59:26.897Z,25.00
2022-12-11T04:01:53.509Z,25.70
2022-12-11T04:04:20.685Z,25.60
2022-12-11T04:06:58.882Z,24.65
2022-12-11T04:09:25.538Z,26.50
2022-12-11T04:11:52.136Z,25.15
2022-12-11T04:14:38.963Z,24.98
2022-12-11T04:17:06.114Z,24.98
2022-12-11T04:19:51.626Z,24.50
2022-12-11T04:22:37.288Z,25.92
2022-12-11T04:25:06.812Z,26.77
2022-12-11T04:27:51.505Z,26.35
2022-12-11T04:30:25.284Z,25.63
2022-12-11T04:32:55.005Z,26.70
2022-12-11T04:35:22.607Z,25.70
2022-12-11T04:37:49.752Z,25.98
2022-12-11T04:40:18.717Z,26.23
2022-12-11T04:42:45.707Z,25.77
2022-12-11T04:45:12.830Z,26.42
2022-12-11T04:47:40.760Z,25.40
2022-12-11T04:50:09.658Z,26.90
2022-12-11T04:52:36.258Z,25.02
2022-12-11T04:55:05.299Z,25.98
2022-12-11T04:57:31.892Z,26.15
2022-12-11T04:59:59.786Z,24.05
2022-12-11T05:02:26.887Z,25.77
2022-12-11T05:04:53.657Z,24.90
2022-12-11T05:07:20.308Z,26.60
2022-12-11T05:09:46.925Z,25.23
2022-12-11T05:12:13.515Z,24.40
2022-12-11T05:14:40.111Z,23.90
2022-12-11T05:17:07.024Z,25.15
2022-12-11T05:19:33.813Z,23.02
2022-12-11T05:22:00.455Z,24.58
2022-12-11T05:24:27.102Z,23.48
2022-12-11T05:26:53.693Z,21.08
2022-12-11T05:29:20.379Z,22.52
2022-12-11T05:31:47.003Z,22.02
2022-12-11T05:34:17.888Z,21.98
2022-12-11T05:36:44.455Z,20.30
2022-12-11T05:39:12.028Z,20.60
2022-12-11T05:41:38.648Z,19.92
2022-12-11T05:44:05.646Z,19.83
2022-12-11T05:46:32.499Z,20.50
2022-12-11T05:49:01.182Z,20.65
2022-12-11T05:51:28.935Z,18.58
2022-12-11T05:53:56.677Z,19.23
2022-12-11T05:56:26.381Z,18.50
2022-12-11T05:58:53.819Z,18.33
2022-12-11T06:01:21.969Z,18.35
2022-12-11T06:03:49.002Z,19.48
2022-12-11T06:06:15.932Z,18.92
2022-12-11T06:08:42.836Z,18.55
2022-12-11T06:11:09.551Z,18.77
2022-12-11T06:13:36.782Z,18.58
2022-12-11T06:16:05.267Z,19.08
2022-12-11T06:18:35.037Z,18.63
2022-12-11T06:21:01.782Z,17.55
2022-12-11T06:23:28.578Z,18.45
2022-12-11T06:25:55.280Z,17.88
2022-12-11T06:28:21.849Z,16.73
2022-12-11T06:30:48.442Z,19.23
2022-12-11T06:33:15.085Z,17.95
2022-12-11T06:35:42.536Z,17.48
2022-12-11T06:38:10.489Z,18.05
2022-12-11T06:40:37.166Z,17.17
2022-12-11T06:43:03.820Z,17.58
2022-12-11T06:45:30.798Z,16.67
2022-12-11T06:47:58.397Z,18.40
2022-12-11T06:50:25.155Z,18.17
2022-12-11T06:52:51.745Z,17.42
2022-12-11T06:55:18.490Z,19.38
2022-12-11T06:57:45.079Z,17.48
2022-12-11T07:00:12.234Z,17.15
2022-12-11T07:02:38.857Z,18.10
2022-12-11T07:05:06.261Z,18.60
2022-12-11T07:07:33.213Z,17.08
2022-12-11T07:10:06.009Z,17.95
2022-12-11T07:12:34.836Z,17.70
2022-12-11T07:15:01.470Z,17.48
2022-12-11T07:17:29.593Z,18.08
2022-12-11T07:19:56.753Z,18.52
2022-12-11T07:22:23.472Z,29.17
2022-12-11T07:24:50.097Z,17.90
2022-12-11T07:27:16.817Z,17.38
2022-12-11T07:29:43.406Z,18.30
2022-12-11T07:32:10.534Z,16.92
2022-12-11T07:34:37.454Z,16.85
2022-12-11T07:37:04.076Z,16.05
2022-12-11T07:39:30.729Z,16.30
2022-12-11T07:41:57.359Z,16.85
2022-12-11T07:44:23.956Z,15.83
2022-12-11T07:46:50.595Z,14.65
2022-12-11T07:49:17.220Z,14.38
2022-12-11T07:51:43.871Z,13.70
2022-12-11T07:54:16.557Z,14.50
2022-12-11T07:56:47.408Z,13.65
2022-12-11T07:59:16.809Z,14.30
2022-12-11T08:01:44.107Z,13.40
2022-12-11T08:04:15.376Z,14.52
2022-12-11T08:06:42.767Z,13.77
2022-12-11T08:09:14.807Z,14.20
2022-12-11T08:11:49.331Z,14.73
2022-12-11T08:14:16.054Z,15.18
2022-12-11T08:16:44.034Z,13.40
2022-12-11T08:19:14.705Z,14.15
2022-12-11T08:21:41.730Z,13.48
2022-12-11T08:24:09.114Z,13.43
2022-12-11T08:26:35.942Z,13.63
2022-12-11T08:29:02.752Z,13.23
2022-12-11T08:31:29.916Z,13.20
2022-12-11T08:33:57.028Z,12.75
2022-12-11T08:36:24.251Z,12.80
2022-12-11T08:38:52.036Z,12.55
2022-12-11T08:41:32.000Z,11.55
2022-12-11T08:44:01.927Z,11.82
2022-12-11T08:49:22.896Z,13.27
2022-12-11T08:51:49.598Z,13.10
2022-12-11T08:54:25.329Z,13.02
2022-12-11T09:01:26.513Z,12.30
2022-12-11T09:03:55.140Z,13.02
2022-12-11T09:06:24.391Z,13.88
2022-12-11T09:08:53.526Z,13.75
2022-12-11T09:11:27.398Z,13.75
2022-12-11T09:13:54.953Z,13.80
2022-12-11T09:16:24.268Z,14.63
2022-12-11T09:18:52.580Z,13.60
2022-12-11T09:21:21.525Z,14.23
2022-12-11T09:23:48.998Z,14.63
2022-12-11T09:26:18.405Z,15.77
2022-12-11T09:28:53.210Z,16.24
2022-12-11T09:31:25.307Z,18.33
2022-12-11T09:33:55.496Z,17.65
2022-12-11T09:36:22.954Z,24.27
2022-12-11T09:38:49.727Z,15.23
2022-12-11T09:41:22.263Z,31.70
2022-12-11T09:43:57.802Z,19.88
2022-12-11T09:46:28.510Z,18.35
2022-12-11T09:48:57.523Z,15.05
2022-12-11T09:51:53.831Z,14.63
2022-12-11T09:54:20.498Z,13.40
2022-12-11T09:56:59.191Z,13.23
2022-12-11T09:59:32.466Z,12.63
2022-12-11T10:02:25.739Z,13.07
2022-12-11T10:05:19.708Z,13.15
2022-12-11T10:08:12.489Z,13.85
2022-12-11T10:10:49.785Z,12.55
2022-12-11T10:13:51.966Z,13.73
2022-12-11T10:16:24.202Z,13.43
2022-12-11T10:18:51.242Z,13.38
2022-12-11T10:21:19.033Z,13.55
2022-12-11T10:23:59.614Z,12.63
2022-12-11T10:26:29.266Z,13.00
2022-12-11T10:29:00.514Z,14.77
2022-12-11T10:31:55.538Z,13.80
2022-12-11T10:34:35.886Z,12.63
2022-12-11T10:37:02.918Z,14.32
2022-12-11T10:39:29.622Z,13.88
2022-12-11T10:41:57.217Z,14.43
2022-12-11T10:44:30.812Z,16.30
2022-12-11T10:47:11.803Z,13.35
2022-12-11T10:49:42.567Z,12.82
2022-12-11T10:52:35.589Z,11.43
2022-12-11T10:55:22.591Z,11.38
2022-12-11T10:58:05.234Z,10.15
2022-12-11T11:00:41.704Z,10.15
2022-12-11T11:03:25.530Z,10.02
2022-12-11T11:06:17.247Z,9.95
2022-12-11T11:08:47.467Z,9.68
2022-12-11T11:11:34.484Z,8.60
2022-12-11T11:14:18.606Z,9.75
2022-12-11T11:16:50.555Z,9.65
2022-12-11T11:19:36.038Z,9.50
2022-12-11T11:22:08.491Z,10.27
2022-12-11T11:24:41.616Z,9.40
2022-12-11T11:27:24.279Z,12.35
2022-12-11T11:30:08.174Z,11.23
2022-12-11T11:32:38.920Z,10.10
2022-12-11T11:35:11.812Z,10.53
2022-12-11T11:37:44.300Z,10.93
2022-12-11T11:40:18.555Z,10.45
2022-12-11T11:42:57.140Z,11.25
2022-12-11T11:45:46.742Z,12.20
2022-12-11T11:48:30.856Z,12.63
2022-12-11T11:50:58.417Z,11.07
2022-12-11T11:53:37.285Z,13.77
2022-12-11T11:56:23.581Z,14.60
2022-12-11T11:59:29.802Z,14.25
2022-12-11T12:01:57.301Z,14.23
2022-12-11T12:04:26.697Z,14.25
2022-12-11T12:06:56.194Z,13.45
2022-12-11T12:09:41.727Z,12.65
2022-12-11T12:12:27.442Z,13.18
2022-12-11T12:15:39.178Z,12.82
2022-12-11T12:18:33.619Z,11.90
2022-12-11T12:21:06.087Z,13.35
2022-12-11T12:23:49.548Z,13.05
2022-12-11T12:26:36.639Z,13.13
2022-12-11T12:29:30.367Z,12.55
2022-12-11T12:32:16.062Z,12.13
2022-12-11T12:34:51.778Z,11.33
2022-12-11T12:37:59.965Z,9.98
2022-12-11T12:40:32.547Z,11.43
2022-12-11T12:43:35.546Z,10.85
2022-12-11T12:46:24.963Z,10.20
2022-12-11T12:48:54.417Z,9.88
2022-12-11T12:51:21.829Z,10.88
2022-12-11T12:53:55.305Z,10.98
2022-12-11T12:56:23.599Z,9.60
2022-12-11T12:58:50.474Z,9.80
2022-12-11T13:01:22.587Z,10.50
2022-12-11T13:04:02.175Z,9.57
2022-12-11T13:06:43.963Z,8.90
2022-12-11T13:11:49.953Z,8.40
2022-12-11T13:14:16.537Z,9.43
2022-12-11T13:16:48.909Z,7.85
2022-12-11T13:19:27.353Z,8.55
2022-12-11T13:22:12.851Z,8.07
2022-12-11T13:24:49.500Z,8.07
2022-12-11T13:27:41.655Z,9.27
2022-12-11T13:30:23.085Z,10.07
2022-12-11T13:33:02.664Z,17.92
2022-12-11T13:35:30.612Z,10.68
2022-12-11T13:38:04.221Z,10.02
2022-12-11T13:40:41.667Z,10.40
2022-12-11T13:43:23.438Z,9.55
2022-12-11T13:48:25.558Z,9.30
2022-12-11T13:50:53.868Z,9.07
2022-12-11T13:53:21.544Z,9.80
2022-12-11T13:56:00.534Z,9.82
2022-12-11T13:58:28.764Z,9.48
2022-12-11T14:01:05.634Z,9.23
2022-12-11T14:03:33.703Z,9.65
2022-12-11T14:06:01.909Z,9.18
2022-12-11T14:08:35.389Z,9.93
2022-12-11T14:11:02.553Z,9.55
2022-12-11T14:13:37.580Z,8.55
2022-12-11T14:16:06.033Z,9.73
2022-12-11T14:18:35.240Z,9.48
2022-12-11T14:21:05.201Z,9.07
2022-12-11T14:23:37.177Z,9.80
2022-12-11T14:26:15.072Z,9.45
2022-12-11T14:28:42.544Z,10.13
2022-12-11T14:31:13.833Z,10.18
2022-12-11T14:33:48.546Z,10.00
2022-12-11T14:36:17.521Z,9.93
2022-12-11T14:38:57.569Z,9.20
2022-12-11T14:41:34.297Z,9.05
2022-12-11T14:44:04.402Z,8.20
2022-12-11T14:46:47.638Z,9.15
2022-12-11T14:49:32.238Z,9.32
2022-12-11T14:52:00.958Z,8.80
2022-12-11T14:54:37.777Z,8.68
2022-12-11T14:57:06.669Z,9.27
2022-12-11T14:59:43.992Z,9.30
2022-12-11T15:02:26.159Z,10.52
2022-12-11T15:05:18.134Z,9.98
2022-12-11T15:10:54.498Z,9.27
2022-12-11T15:13:24.442Z,10.50
2022-12-11T15:15:52.974Z,11.63
2022-12-11T15:18:25.468Z,10.50
2022-12-11T15:20:54.985Z,10.32
2022-12-11T15:23:22.133Z,10.52
2022-12-11T15:25:54.618Z,10.73
2022-12-11T15:28:34.089Z,12.00
2022-12-11T15:31:07.156Z,11.73
2022-12-11T15:33:44.539Z,11.25
2022-12-11T15:36:35.369Z,11.40
2022-12-11T15:39:03.911Z,11.18
2022-12-11T15:41:33.267Z,10.95
2022-12-11T15:44:02.971Z,10.57
2022-12-11T15:46:34.991Z,11.02
2022-12-11T15:49:01.754Z,10.32
2022-12-11T15:51:29.038Z,11.57
2022-12-11T15:53:55.665Z,10.20
2022-12-11T15:56:22.478Z,11.57
2022-12-11T15:58:49.494Z,12.07
2022-12-11T16:01:16.192Z,10.52
2022-12-11T16:03:42.855Z,11.13
2022-12-11T16:06:12.371Z,10.77
2022-12-11T16:08:39.087Z,10.32
2022-12-11T16:11:05.828Z,11.38
2022-12-11T16:13:32.467Z,11.07
2022-12-11T16:15:59.179Z,11.40
2022-12-11T16:18:26.426Z,11.60
2022-12-11T16:20:53.777Z,11.85
2022-12-11T16:23:20.755Z,11.10
2022-12-11T16:25:48.096Z,12.07
2022-12-11T16:28:16.804Z,11.27
2022-12-11T16:30:44.255Z,12.93
2022-12-11T16:33:13.227Z,11.93
2022-12-11T16:35:41.431Z,11.35
2022-12-11T16:38:08.284Z,11.35
2022-12-11T16:40:34.955Z,12.00
2022-12-11T16:43:02.667Z,10.68
2022-12-11T16:45:29.405Z,12.20
2022-12-11T16:47:56.148Z,12.95
2022-12-11T16:50:23.932Z,12.73
2022-12-11T16:52:50.632Z,12.65
2022-12-11T16:55:20.980Z,12.77
2022-12-11T16:57:47.809Z,12.23
2022-12-11T17:00:15.345Z,11.77
2022-12-11T17:02:43.053Z,11.88
2022-12-11T17:05:10.364Z,12.00
2022-12-11T17:07:37.448Z,13.93
2022-12-11T17:10:04.863Z,14.48
2022-12-11T17:12:31.668Z,13.80
2022-12-11T17:14:58.390Z,12.73
2022-12-11T17:17:25.287Z,11.85
2022-12-11T17:19:52.123Z,11.93
2022-12-11T17:22:19.176Z,12.98
2022-12-11T17:24:45.829Z,11.93
2022-12-11T17:27:12.491Z,11.48
2022-12-11T17:29:39.734Z,13.57
2022-12-11T17:32:06.917Z,13.93
2022-12-11T17:34:38.178Z,13.38
2022-12-11T17:37:06.181Z,14.80
2022-12-11T17:39:33.130Z,14.02
2022-12-11T17:42:00.254Z,14.20
2022-12-11T17:44:30.185Z,14.30
2022-12-11T17:46:58.244Z,12.15
2022-12-11T17:49:25.525Z,14.30
2022-12-11T17:51:55.342Z,13.27
2022-12-11T17:54:23.985Z,14.68
2022-12-11T17:56:51.268Z,14.63
2022-12-11T17:59:18.413Z,16.38
2022-12-11T18:01:45.442Z,16.20
2022-12-11T18:04:12.482Z,14.27
2022-12-11T18:06:39.499Z,15.60
2022-12-11T18:09:06.613Z,15.75
2022-12-11T18:11:34.225Z,18.73
2022-12-11T18:14:01.005Z,17.23
2022-12-11T18:16:33.919Z,17.70
2022-12-11T18:19:00.985Z,16.52
2022-12-11T18:21:31.720Z,16.65
2022-12-11T18:23:58.714Z,18.03
2022-12-11T18:26:25.416Z,17.40
2022-12-11T18:28:52.843Z,16.20
2022-12-11T18:31:21.486Z,16.83
2022-12-11T18:33:48.467Z,15.85
2022-12-11T18:36:16.798Z,15.23
2022-12-11T18:38:43.745Z,16.75
2022-12-11T18:41:12.221Z,17.25
2022-12-11T18:43:40.745Z,16.95
2022-12-11T18:46:09.709Z,14.98
2022-12-11T18:48:36.720Z,16.05
2022-12-11T18:51:08.049Z,14.20
2022-12-11T18:53:36.073Z,14.20
2022-12-11T18:56:07.943Z,14.88
2022-12-11T18:58:34.803Z,16.20
2022-12-11T19:01:31.941Z,16.63
2022-12-11T19:04:05.369Z,14.23
2022-12-11T19:06:35.373Z,14.18
2022-12-11T19:09:04.173Z,14.25
2022-12-11T19:11:32.335Z,13.85
2022-12-11T19:13:59.458Z,13.38
2022-12-11T19:16:33.566Z,14.43
2022-12-11T19:19:02.781Z,13.82
2022-12-11T19:21:30.278Z,14.68
2022-12-11T19:23:57.044Z,15.02
2022-12-11T19:26:24.166Z,15.35
2022-12-11T19:28:52.585Z,16.40
2022-12-11T19:31:22.730Z,14.52
2022-12-11T19:33:49.848Z,15.07
2022-12-11T19:36:18.896Z,15.35
2022-12-11T19:38:46.216Z,15.50
2022-12-11T19:41:23.523Z,15.50
2022-12-11T19:43:50.900Z,15.52
2022-12-11T19:46:18.427Z,15.43
2022-12-11T19:48:45.427Z,16.65
2022-12-11T19:51:15.939Z,16.58
2022-12-11T19:53:43.820Z,15.52
2022-12-11T19:56:11.155Z,19.38
2022-12-11T19:58:38.767Z,16.25
2022-12-11T20:01:07.145Z,16.50
2022-12-11T20:03:35.238Z,16.30
2022-12-11T20:06:07.323Z,19.50
2022-12-11T20:08:44.937Z,19.38
2022-12-11T20:11:17.967Z,17.95
2022-12-11T20:13:46.253Z,16.33
2022-12-11T20:16:14.337Z,15.48
2022-12-11T20:18:41.664Z,16.48
2022-12-11T20:21:11.581Z,15.45
2022-12-11T20:23:38.615Z,16.98
2022-12-11T20:26:13.299Z,15.18
2022-12-11T20:28:40.272Z,16.30
2022-12-11T20:31:19.532Z,15.93
2022-12-11T20:33:48.710Z,15.93
2022-12-11T20:36:16.928Z,15.75
2022-12-11T20:38:44.091Z,16.42
2022-12-11T20:41:13.519Z,17.90
2022-12-11T20:43:40.661Z,18.80
2022-12-11T20:46:09.672Z,17.52
2022-12-11T20:48:38.933Z,17.13
2022-12-11T20:51:08.761Z,17.40
2022-12-11T20:53:36.953Z,15.50
2022-12-11T20:56:13.045Z,15.98
2022-12-11T20:58:40.436Z,16.20
2022-12-11T21:01:12.602Z,17.45
2022-12-11T21:03:42.098Z,16.73
2022-12-11T21:06:17.451Z,18.05
2022-12-11T21:08:44.174Z,17.60
2022-12-11T21:11:10.944Z,17.27
2022-12-11T21:13:37.888Z,16.27
2022-12-11T21:16:06.567Z,17.73
2022-12-11T21:18:33.957Z,17.55
2022-12-11T21:21:00.941Z,17.40
2022-12-11T21:23:27.655Z,17.20
2022-12-11T21:25:54.602Z,16.42
2022-12-11T21:28:21.400Z,15.95
2022-12-11T21:30:48.242Z,16.60
2022-12-11T21:33:15.311Z,16.95
2022-12-11T21:35:42.221Z,19.45
2022-12-11T21:38:09.832Z,17.42
2022-12-11T21:40:36.486Z,17.27
2022-12-11T21:43:03.364Z,18.75
2022-12-11T21:48:16.836Z,20.20
2022-12-11T21:50:43.546Z,28.73
2022-12-11T21:53:10.211Z,23.17
2022-12-11T21:55:41.017Z,17.88
2022-12-11T21:58:07.912Z,16.97
2022-12-11T22:00:37.213Z,19.73
2022-12-11T22:03:04.120Z,18.85
2022-12-11T22:05:31.120Z,17.35
2022-12-11T22:07:58.236Z,17.75
2022-12-11T22:10:25.028Z,16.27
2022-12-11T22:12:51.700Z,18.83
2022-12-11T22:15:18.390Z,18.35
2022-12-11T22:17:45.135Z,16.05
2022-12-11T22:20:11.993Z,15.77
2022-12-11T22:22:38.887Z,16.23
2022-12-11T22:25:07.830Z,17.30
2022-12-11T22:27:35.509Z,17.13
2022-12-11T22:30:02.377Z,18.20
2022-12-11T22:32:29.019Z,17.48
2022-12-11T22:34:57.639Z,17.60
2022-12-11T22:37:25.126Z,20.63
2022-12-11T22:39:52.059Z,17.98
2022-12-11T22:42:18.942Z,18.17
2022-12-11T22:44:45.579Z,17.38
2022-12-11T22:47:12.443Z,17.83
2022-12-11T22:49:39.074Z,18.75
2022-12-11T22:52:05.974Z,19.48
2022-12-11T22:54:32.648Z,19.25
2022-12-11T22:56:59.373Z,19.77
2022-12-11T22:59:26.170Z,19.23
2022-12-11T23:01:52.861Z,19.10
2022-12-11T23:04:19.532Z,19.20
2022-12-11T23:06:46.312Z,18.05
2022-12-11T23:09:13.060Z,18.70
2022-12-11T23:11:40.071Z,19.63
2022-12-11T23:14:10.827Z,20.48
2022-12-11T23:16:37.831Z,20.40
2022-12-11T23:19:04.626Z,21.65
2022-12-11T23:21:31.827Z,20.45
2022-12-11T23:23:59.318Z,19.83
2022-12-11T23:26:27.328Z,19.98
2022-12-11T23:28:55.022Z,19.85
2022-12-11T23:31:22.187Z,20.10
2022-12-11T23:33:49.351Z,21.33
2022-12-11T23:36:16.387Z,20.55
2022-12-11T23:38:43.397Z,19.73
2022-12-11T23:41:13.066Z,20.52
2022-12-11T23:43:40.100Z,20.20
2022-12-11T23:46:16.472Z,19.85
2022-12-11T23:48:43.178Z,21.33
2022-12-11T23:51:13.132Z,21.20
2022-12-11T23:53:39.875Z,20.60
2022-12-11T23:56:09.638Z,20.15
2022-12-11T23:58:37.839Z,22.08
